createdAt,value
2022-10-29T00:00:08.786Z,101220.72
2022-10-29T00:02:36.426Z,101225.75
2022-10-29T00:05:04.356Z,101229.94
2022-10-29T00:07:31.947Z,101230.22
2022-10-29T00:09:59.571Z,101232.72
2022-10-29T00:12:28.593Z,101226.53
2022-10-29T00:14:56.233Z,101226.69
2022-10-29T00:17:24.008Z,101223.34
2022-10-29T00:19:51.635Z,101223.34
2022-10-29T00:22:19.310Z,101232.41
2022-10-29T00:24:46.906Z,101237.66
2022-10-29T00:27:14.515Z,101234.19
2022-10-29T00:29:43.612Z,101227.88
2022-10-29T00:32:11.365Z,101226.91
2022-10-29T00:34:39.233Z,101223.91
2022-10-29T00:37:06.888Z,101217.88
2022-10-29T00:39:34.554Z,101223.53
2022-10-29T00:42:02.432Z,101225.47
2022-10-29T00:44:32.800Z,101231.00
2022-10-29T00:47:14.786Z,101230.63
2022-10-29T00:49:44.519Z,101232.66
2022-10-29T00:52:12.290Z,101225.13
2022-10-29T00:54:43.719Z,101222.34
2022-10-29T00:57:15.543Z,101224.91
2022-10-29T00:59:44.416Z,101226.31
2022-10-29T01:02:13.815Z,101219.97
2022-10-29T01:04:42.820Z,101232.00
2022-10-29T01:07:11.743Z,101233.03
2022-10-29T01:09:39.947Z,101230.84
2022-10-29T01:12:33.354Z,101232.84
2022-10-29T01:15:09.096Z,101236.75
2022-10-29T01:17:51.119Z,101248.47
2022-10-29T01:20:45.526Z,101241.44
2022-10-29T01:23:39.991Z,101241.28
2022-10-29T01:26:27.014Z,101227.38
2022-10-29T01:29:11.527Z,101230.09
2022-10-29T01:31:46.931Z,101221.09
2022-10-29T01:34:21.200Z,101228.28
2022-10-29T01:36:55.023Z,101212.72
2022-10-29T01:39:36.618Z,101225.28
2022-10-29T01:42:12.039Z,101220.88
2022-10-29T01:44:47.013Z,101227.72
2022-10-29T01:47:19.353Z,101232.59
2022-10-29T01:49:52.595Z,101220.06
2022-10-29T01:52:23.271Z,101217.41
2022-10-29T01:54:50.919Z,101221.47
2022-10-29T01:57:31.269Z,101212.03
2022-10-29T02:00:02.309Z,101209.34
2022-10-29T02:02:48.210Z,101207.84
2022-10-29T02:05:26.546Z,101206.69
2022-10-29T02:08:00.666Z,101202.34
2022-10-29T02:10:34.638Z,101195.19
2022-10-29T02:13:02.645Z,101200.75
2022-10-29T02:15:34.540Z,101203.44
2022-10-29T02:18:06.042Z,101205.94
2022-10-29T02:20:34.245Z,101200.25
2022-10-29T02:23:01.981Z,101195.38
2022-10-29T02:25:30.335Z,101194.56
2022-10-29T02:27:58.248Z,101196.75
2022-10-29T02:30:26.035Z,101198.59
2022-10-29T02:32:53.866Z,101199.59
2022-10-29T02:35:23.107Z,101202.13
2022-10-29T02:37:51.051Z,101205.09
2022-10-29T02:40:26.526Z,101201.38
2022-10-29T02:42:56.142Z,101195.56
2022-10-29T02:45:24.035Z,101199.75
2022-10-29T02:47:51.690Z,101189.88
2022-10-29T02:50:21.198Z,101195.38
2022-10-29T02:52:50.166Z,101202.09
2022-10-29T02:55:17.770Z,101197.72
2022-10-29T02:57:53.224Z,101199.28
2022-10-29T03:00:23.831Z,101193.09
2022-10-29T03:02:52.895Z,101193.78
2022-10-29T03:05:20.630Z,101193.63
2022-10-29T03:07:48.266Z,101193.78
2022-10-29T03:10:17.367Z,101194.16
2022-10-29T03:12:44.964Z,101206.03
2022-10-29T03:15:12.617Z,101202.00
2022-10-29T03:17:40.197Z,101192.50
2022-10-29T03:20:08.645Z,101188.63
2022-10-29T03:22:37.437Z,101183.47
2022-10-29T03:25:05.503Z,101185.44
2022-10-29T03:27:41.076Z,101189.09
2022-10-29T03:30:10.134Z,101182.06
2022-10-29T03:32:41.361Z,101188.59
2022-10-29T03:35:10.386Z,101186.94
2022-10-29T03:37:38.182Z,101184.56
2022-10-29T03:40:07.040Z,101179.53
2022-10-29T03:42:36.006Z,101185.25
2022-10-29T03:45:03.617Z,101186.59
2022-10-29T03:47:31.265Z,101189.78
2022-10-29T03:49:58.839Z,101196.13
2022-10-29T03:52:26.379Z,101197.09
2022-10-29T03:54:53.999Z,101197.75
2022-10-29T03:57:21.612Z,101200.78
2022-10-29T03:59:52.568Z,101196.28
2022-10-29T04:02:20.822Z,101192.75
2022-10-29T04:04:48.545Z,101197.78
2022-10-29T04:07:16.260Z,101191.75
2022-10-29T04:09:43.910Z,101184.09
2022-10-29T04:12:11.475Z,101185.75
2022-10-29T04:14:44.469Z,101179.75
2022-10-29T04:17:15.012Z,101184.94
2022-10-29T04:19:42.621Z,101189.16
2022-10-29T04:28:41.362Z,101196.50
2022-10-29T04:30:33.605Z,101192.50
2022-10-29T04:33:02.527Z,101191.16
2022-10-29T04:35:30.457Z,101195.84
2022-10-29T04:37:58.387Z,101192.81
2022-10-29T04:40:26.236Z,101202.53
2022-10-29T04:42:54.083Z,101200.53
2022-10-29T04:45:21.971Z,101199.69
2022-10-29T04:47:49.558Z,101196.13
2022-10-29T04:50:18.685Z,101191.44
2022-10-29T04:52:46.286Z,101189.44
2022-10-29T04:55:13.910Z,101191.75
2022-10-29T04:57:41.462Z,101187.06
2022-10-29T05:00:14.946Z,101182.72
2022-10-29T05:02:48.798Z,101176.34
2022-10-29T05:05:18.407Z,101174.34
2022-10-29T05:07:46.481Z,101168.63
2022-10-29T05:10:14.936Z,101169.97
2022-10-29T05:12:42.624Z,101165.91
2022-10-29T05:15:11.076Z,101165.63
2022-10-29T05:17:39.353Z,101175.66
2022-10-29T05:20:08.063Z,101183.03
2022-10-29T05:22:37.007Z,101185.41
2022-10-29T05:25:04.974Z,101184.09
2022-10-29T05:27:32.710Z,101186.09
2022-10-29T05:30:00.319Z,101179.22
2022-10-29T05:32:29.444Z,101181.19
2022-10-29T05:34:57.135Z,101182.69
2022-10-29T05:37:25.489Z,101170.47
2022-10-29T05:39:54.424Z,101175.97
2022-10-29T05:42:22.148Z,101170.22
2022-10-29T05:44:49.698Z,101175.59
2022-10-29T05:47:17.282Z,101171.44
2022-10-29T05:49:44.890Z,101172.63
2022-10-29T05:52:12.510Z,101171.78
2022-10-29T05:54:40.119Z,101174.28
2022-10-29T05:57:09.081Z,101172.13
2022-10-29T05:59:36.622Z,101160.56
2022-10-29T06:02:04.374Z,101169.84
2022-10-29T06:04:32.111Z,101168.00
2022-10-29T06:06:59.722Z,101177.19
2022-10-29T06:09:27.259Z,101176.50
2022-10-29T06:11:55.809Z,101182.69
2022-10-29T06:14:24.812Z,101183.38
2022-10-29T06:16:52.412Z,101177.91
2022-10-29T06:19:20.221Z,101174.75
2022-10-29T06:21:47.805Z,101179.09
2022-10-29T06:24:15.387Z,101178.28
2022-10-29T06:26:43.049Z,101177.59
2022-10-29T06:29:10.642Z,101182.13
2022-10-29T06:31:39.546Z,101178.94
2022-10-29T06:34:07.322Z,101177.94
2022-10-29T06:36:34.914Z,101179.44
2022-10-29T06:39:02.880Z,101177.75
2022-10-29T06:41:30.509Z,101167.41
2022-10-29T06:43:58.536Z,101178.41
2022-10-29T06:46:26.134Z,101181.44
2022-10-29T06:48:55.204Z,101185.63
2022-10-29T06:53:55.716Z,101187.63
2022-10-29T06:56:23.423Z,101183.63
2022-10-29T06:58:50.970Z,101198.50
2022-10-29T07:01:18.606Z,101194.19
2022-10-29T07:03:46.242Z,101204.53
2022-10-29T07:06:15.137Z,101201.53
2022-10-29T07:08:42.772Z,101197.50
2022-10-29T07:11:10.337Z,101206.06
2022-10-29T07:13:37.978Z,101198.50
2022-10-29T07:16:06.360Z,101202.53
2022-10-29T07:18:34.315Z,101203.06
2022-10-29T07:21:04.047Z,101209.56
2022-10-29T07:23:33.066Z,101206.19
2022-10-29T07:26:00.615Z,101206.88
2022-10-29T07:28:28.269Z,101209.22
2022-10-29T07:31:00.701Z,101210.53
2022-10-29T07:33:29.867Z,101206.19
2022-10-29T07:35:58.448Z,101211.22
2022-10-29T07:38:26.469Z,101215.19
2022-10-29T07:40:55.755Z,101219.56
2022-10-29T07:43:23.901Z,101217.38
2022-10-29T07:45:52.399Z,101215.88
2022-10-29T07:48:21.245Z,101204.81
2022-10-29T07:50:49.211Z,101208.19
2022-10-29T07:53:17.128Z,101215.84
2022-10-29T07:55:45.600Z,101212.50
2022-10-29T07:58:14.565Z,101214.81
2022-10-29T08:00:42.565Z,101212.66
2022-10-29T08:03:12.545Z,101217.16
2022-10-29T08:05:42.817Z,101223.66
2022-10-29T08:08:11.254Z,101221.13
2022-10-29T08:10:38.892Z,101219.09
2022-10-29T08:13:07.856Z,101218.94
2022-10-29T08:15:37.156Z,101215.09
2022-10-29T08:18:10.676Z,101212.75
2022-10-29T08:20:38.363Z,101210.88
2022-10-29T08:23:05.994Z,101207.00
2022-10-29T08:25:33.562Z,101206.63
2022-10-29T08:28:02.330Z,101210.28
2022-10-29T08:30:30.426Z,101216.28
2022-10-29T08:32:59.986Z,101215.91
2022-10-29T08:35:28.492Z,101216.25
2022-10-29T08:37:56.316Z,101222.25
2022-10-29T08:40:30.392Z,101231.09
2022-10-29T08:43:25.939Z,101221.78
2022-10-29T08:45:55.735Z,101228.50
2022-10-29T08:48:31.051Z,101229.94
2022-10-29T08:51:04.304Z,101226.94
2022-10-29T08:53:37.495Z,101236.31
2022-10-29T08:56:11.029Z,101224.88
2022-10-29T08:58:46.000Z,101225.72
2022-10-29T09:01:14.021Z,101227.19
2022-10-29T09:03:43.051Z,101232.75
2022-10-29T09:06:14.442Z,101215.59
2022-10-29T09:08:55.722Z,101218.84
2022-10-29T09:11:41.734Z,101216.53
2022-10-29T09:14:37.027Z,101205.84
2022-10-29T09:17:14.667Z,101205.84
2022-10-29T09:20:00.001Z,101197.75
2022-10-29T09:22:33.468Z,101200.38
2022-10-29T09:25:13.729Z,101200.66
2022-10-29T09:27:54.850Z,101202.50
2022-10-29T09:30:23.219Z,101197.97
2022-10-29T09:32:59.721Z,101204.25
2022-10-29T09:35:38.951Z,101205.41
2022-10-29T09:38:17.107Z,101198.19
2022-10-29T09:40:45.391Z,101190.66
2022-10-29T09:43:25.132Z,101182.72
2022-10-29T09:46:01.379Z,101175.97
2022-10-29T09:48:35.879Z,101174.91
2022-10-29T09:51:16.387Z,101175.22
2022-10-29T09:53:44.653Z,101173.09
2022-10-29T09:56:12.246Z,101167.16
2022-10-29T09:58:45.596Z,101166.75
2022-10-29T10:01:14.613Z,101159.72
2022-10-29T10:03:45.600Z,101161.78
2022-10-29T10:06:16.763Z,101158.81
2022-10-29T10:09:01.610Z,101154.38
2022-10-29T10:11:36.618Z,101153.97
2022-10-29T10:14:09.211Z,101156.16
2022-10-29T10:16:37.510Z,101158.88
2022-10-29T10:19:22.375Z,101158.25
2022-10-29T10:21:58.401Z,101165.19
2022-10-29T10:24:34.252Z,101157.59
2022-10-29T10:27:02.160Z,101148.44
2022-10-29T10:29:29.742Z,101154.50
2022-10-29T10:32:17.028Z,101148.25
2022-10-29T10:34:44.597Z,101145.56
2022-10-29T10:37:19.320Z,101152.66
2022-10-29T10:39:49.490Z,101143.94
2022-10-29T10:42:20.137Z,101138.50
2022-10-29T10:44:52.925Z,101133.72
2022-10-29T10:47:23.439Z,101134.34
2022-10-29T10:49:51.168Z,101115.47
2022-10-29T10:52:26.810Z,101111.50
2022-10-29T10:55:01.227Z,101109.84
2022-10-29T10:57:33.986Z,101102.38
2022-10-29T11:00:07.369Z,101098.63
2022-10-29T11:02:45.648Z,101091.56
2022-10-29T11:05:18.058Z,101084.91
2022-10-29T11:07:56.316Z,101077.22
2022-10-29T11:10:31.985Z,101083.25
2022-10-29T11:13:04.511Z,101085.97
2022-10-29T11:15:39.082Z,101086.38
2022-10-29T11:20:56.235Z,101081.00
2022-10-29T11:23:38.709Z,101076.41
2022-10-29T11:26:09.791Z,101077.03
2022-10-29T11:28:40.414Z,101077.41
2022-10-29T11:31:18.541Z,101066.00
2022-10-29T11:33:53.952Z,101074.06
2022-10-29T11:36:23.689Z,101065.13
2022-10-29T11:38:57.771Z,101066.56
2022-10-29T11:41:33.139Z,101070.13
2022-10-29T11:44:00.770Z,101064.09
2022-10-29T11:46:39.571Z,101059.09
2022-10-29T11:49:27.751Z,101062.44
2022-10-29T11:52:06.316Z,101057.00
2022-10-29T11:55:01.991Z,101060.53
2022-10-29T11:57:37.459Z,101057.25
2022-10-29T12:00:14.080Z,101053.72
2022-10-29T12:02:55.945Z,101056.19
2022-10-29T12:05:31.204Z,101038.75
2022-10-29T12:08:15.157Z,101038.34
2022-10-29T12:10:55.552Z,101037.13
2022-10-29T12:13:39.212Z,101035.25
2022-10-29T12:16:20.990Z,101038.19
2022-10-29T12:18:56.294Z,101027.38
2022-10-29T12:21:35.529Z,101018.44
2022-10-29T12:24:19.714Z,101008.47
2022-10-29T12:26:54.013Z,101008.28
2022-10-29T12:29:30.293Z,101002.88
2022-10-29T12:32:05.188Z,100998.09
2022-10-29T12:34:41.411Z,100993.13
2022-10-29T12:37:15.526Z,101001.41
2022-10-29T12:39:49.830Z,100998.09
2022-10-29T12:42:23.775Z,101000.19
2022-10-29T12:45:03.345Z,100998.09
2022-10-29T12:47:36.409Z,100997.06
2022-10-29T12:50:18.566Z,100993.75
2022-10-29T12:52:53.188Z,100989.78
2022-10-29T12:55:21.214Z,100994.75
2022-10-29T12:57:50.266Z,100986.38
2022-10-29T13:00:47.733Z,100980.91
2022-10-29T13:03:47.756Z,100982.50
2022-10-29T13:06:47.288Z,100985.59
2022-10-29T13:09:20.285Z,100978.69
2022-10-29T13:11:51.179Z,100969.72
2022-10-29T13:14:29.445Z,100974.31
2022-10-29T13:16:57.995Z,100970.41
2022-10-29T13:19:43.544Z,100969.19
2022-10-29T13:22:55.141Z,100963.41
2022-10-29T13:25:50.450Z,100965.91
2022-10-29T13:28:50.549Z,100957.78
2022-10-29T13:31:48.876Z,100960.50
2022-10-29T13:34:51.553Z,100964.84
2022-10-29T13:37:50.880Z,100960.88
2022-10-29T13:41:01.346Z,100953.78
2022-10-29T13:43:29.848Z,100958.00
2022-10-29T13:46:45.218Z,100954.22
2022-10-29T13:49:19.649Z,100956.53
2022-10-29T13:51:54.602Z,100953.84
2022-10-29T13:54:38.359Z,100952.59
2022-10-29T13:57:15.179Z,100953.63
2022-10-29T13:59:46.401Z,100948.38
2022-10-29T14:02:22.848Z,100945.72
2022-10-29T14:04:55.802Z,100953.47
2022-10-29T14:07:31.106Z,100956.81
2022-10-29T14:10:07.632Z,100954.78
2022-10-29T14:12:38.231Z,100949.78
2022-10-29T14:15:14.812Z,100939.19
2022-10-29T14:17:42.574Z,100942.34
2022-10-29T14:20:23.852Z,100938.19
2022-10-29T14:22:51.656Z,100930.50
2022-10-29T14:25:31.666Z,100935.09
2022-10-29T14:28:27.137Z,100934.91
2022-10-29T14:31:04.883Z,100941.38
2022-10-29T14:33:34.032Z,100936.81
2022-10-29T14:36:17.533Z,100933.72
2022-10-29T14:38:49.371Z,100932.44
2022-10-29T14:41:17.263Z,100931.22
2022-10-29T14:43:47.504Z,100927.91
2022-10-29T14:46:23.538Z,100932.25
2022-10-29T14:48:57.920Z,100929.34
2022-10-29T14:51:27.995Z,100930.38
2022-10-29T14:54:00.824Z,100932.06
2022-10-29T14:56:34.640Z,100937.47
2022-10-29T14:59:05.231Z,100931.84
2022-10-29T15:01:33.007Z,100932.50
2022-10-29T15:04:02.148Z,100938.09
2022-10-29T15:06:31.503Z,100939.34
2022-10-29T15:09:01.313Z,100931.28
2022-10-29T15:11:40.302Z,100941.44
2022-10-29T15:17:00.020Z,100940.63
2022-10-29T15:19:28.193Z,100935.63
2022-10-29T15:21:57.171Z,100932.28
2022-10-29T15:24:25.741Z,100941.84
2022-10-29T15:26:56.143Z,100934.31
2022-10-29T15:29:30.630Z,100938.25
2022-10-29T15:32:01.284Z,100940.75
2022-10-29T15:34:33.166Z,100936.19
2022-10-29T15:37:16.026Z,100934.91
2022-10-29T15:40:03.099Z,100938.44
2022-10-29T15:42:33.035Z,100940.50
2022-10-29T15:45:24.570Z,100940.31
2022-10-29T15:47:54.263Z,100933.00
2022-10-29T15:50:24.163Z,100926.19
2022-10-29T15:52:58.902Z,100926.13
2022-10-29T15:55:29.648Z,100926.97
2022-10-29T15:58:01.392Z,100931.13
2022-10-29T16:00:29.579Z,100931.09
2022-10-29T16:03:03.272Z,100924.00
2022-10-29T16:05:31.136Z,100929.38
2022-10-29T16:08:03.447Z,100920.06
2022-10-29T16:10:31.539Z,100924.34
2022-10-29T16:12:59.907Z,100920.19
2022-10-29T16:18:00.593Z,100918.47
2022-10-29T16:20:28.403Z,100926.97
2022-10-29T16:22:56.164Z,100916.78
2022-10-29T16:25:27.194Z,100917.22
2022-10-29T16:27:55.291Z,100922.16
2022-10-29T16:30:24.280Z,100924.00
2022-10-29T16:32:53.394Z,100927.09
2022-10-29T16:35:22.730Z,100925.00
2022-10-29T16:37:51.549Z,100928.72
2022-10-29T16:40:19.852Z,100930.59
2022-10-29T16:42:49.033Z,100932.03
2022-10-29T16:45:18.787Z,100929.72
2022-10-29T16:47:46.423Z,100930.09
2022-10-29T16:50:18.400Z,100935.50
2022-10-29T16:52:46.454Z,100937.75
2022-10-29T16:55:14.813Z,100932.13
2022-10-29T16:57:42.478Z,100928.00
2022-10-29T17:00:12.600Z,100935.63
2022-10-29T17:02:40.626Z,100928.34
2022-10-29T17:05:08.839Z,100929.16
2022-10-29T17:07:36.497Z,100925.84
2022-10-29T17:10:04.804Z,100935.13
2022-10-29T17:12:32.469Z,100942.63
2022-10-29T17:15:00.098Z,100922.50
2022-10-29T17:17:30.984Z,100939.44
2022-10-29T17:19:58.849Z,100930.50
2022-10-29T17:22:26.521Z,100928.81
2022-10-29T17:24:54.172Z,100939.59
2022-10-29T17:27:21.789Z,100935.22
2022-10-29T17:29:49.451Z,100932.53
2022-10-29T17:32:17.894Z,100931.63
2022-10-29T17:34:46.944Z,100934.88
2022-10-29T17:37:14.605Z,100934.47
2022-10-29T17:39:42.246Z,100936.09
2022-10-29T17:42:09.915Z,100926.59
2022-10-29T17:44:37.489Z,100936.69
2022-10-29T17:47:05.167Z,100934.19
2022-10-29T17:49:32.788Z,100937.25
2022-10-29T17:52:01.731Z,100936.00
2022-10-29T17:54:29.329Z,100939.69
2022-10-29T17:56:56.996Z,100940.91
2022-10-29T17:59:24.643Z,100938.81
2022-10-29T18:01:52.325Z,100939.66
2022-10-29T18:04:19.952Z,100934.28
2022-10-29T18:06:47.565Z,100947.91
2022-10-29T18:09:20.199Z,100938.81
2022-10-29T18:11:50.348Z,100937.16
2022-10-29T18:14:18.386Z,100942.91
2022-10-29T18:16:46.418Z,100942.66
2022-10-29T18:19:14.020Z,100945.34
2022-10-29T18:21:41.632Z,100946.72
2022-10-29T18:24:09.931Z,100936.75
2022-10-29T18:26:38.979Z,100936.88
2022-10-29T18:29:09.104Z,100945.06
2022-10-29T18:31:37.550Z,100941.38
2022-10-29T18:34:07.711Z,100940.97
2022-10-29T18:36:36.398Z,100944.69
2022-10-29T18:39:06.091Z,100948.41
2022-10-29T18:41:34.427Z,100949.59
2022-10-29T18:44:03.558Z,100959.06
2022-10-29T18:46:31.200Z,100945.19
2022-10-29T18:48:58.800Z,100957.13
2022-10-29T18:51:28.008Z,100951.13
2022-10-29T18:53:58.736Z,100945.56
2022-10-29T18:56:28.197Z,100946.22
2022-10-29T18:58:56.622Z,100946.22
2022-10-29T19:01:27.381Z,100944.53
2022-10-29T19:03:57.159Z,100945.75
2022-10-29T19:06:26.985Z,100950.28
2022-10-29T19:08:55.448Z,100949.84
2022-10-29T19:11:25.424Z,100944.84
2022-10-29T19:13:53.933Z,100947.06
2022-10-29T19:16:22.109Z,100948.06
2022-10-29T19:18:55.282Z,100944.00
2022-10-29T19:21:22.862Z,100940.66
2022-10-29T19:23:54.730Z,100940.47
2022-10-29T19:26:22.694Z,100948.72
2022-10-29T19:28:50.445Z,100943.72
2022-10-29T19:31:19.397Z,100954.28
2022-10-29T19:33:48.758Z,100944.38
2022-10-29T19:36:18.323Z,100948.91
2022-10-29T19:38:46.200Z,100945.94
2022-10-29T19:41:14.582Z,100943.72
2022-10-29T19:43:42.961Z,100957.97
2022-10-29T19:46:13.825Z,100951.31
2022-10-29T19:48:41.882Z,100956.25
2022-10-29T19:51:11.204Z,100948.91
2022-10-29T19:53:40.264Z,100948.06
2022-10-29T19:56:11.597Z,100951.59
2022-10-29T19:58:39.329Z,100954.94
2022-10-29T20:01:08.969Z,100941.50
2022-10-29T20:03:37.067Z,100949.94
2022-10-29T20:06:06.282Z,100947.53
2022-10-29T20:08:33.881Z,100942.72
2022-10-29T20:11:02.833Z,100938.75
2022-10-29T20:13:30.411Z,100945.56
2022-10-29T20:15:58.143Z,100941.25
2022-10-29T20:18:25.797Z,100938.75
2022-10-29T20:20:56.969Z,100936.91
2022-10-29T20:23:25.509Z,100940.03
2022-10-29T20:25:53.377Z,100936.72
2022-10-29T20:28:22.316Z,100936.91
2022-10-29T20:30:49.894Z,100921.63
2022-10-29T20:33:17.534Z,100933.94
2022-10-29T20:35:45.100Z,100929.56
2022-10-29T20:38:12.656Z,100931.25
2022-10-29T20:40:40.289Z,100918.47
2022-10-29T20:43:07.914Z,100929.69
2022-10-29T20:45:36.846Z,100927.63
2022-10-29T20:48:04.610Z,100950.13
2022-10-29T20:50:32.184Z,100941.44
2022-10-29T20:52:59.786Z,100941.78
2022-10-29T20:55:28.401Z,100951.69
2022-10-29T20:57:56.331Z,100953.94
2022-10-29T21:00:24.077Z,100950.22
2022-10-29T21:02:52.988Z,100953.09
2022-10-29T21:05:20.534Z,100956.63
2022-10-29T21:07:48.094Z,100951.44
2022-10-29T21:10:15.716Z,100955.13
2022-10-29T21:12:43.291Z,100949.59
2022-10-29T21:15:11.244Z,100943.38
2022-10-29T21:17:38.868Z,100948.94
2022-10-29T21:20:08.494Z,100946.06
2022-10-29T21:22:36.091Z,100950.59
2022-10-29T21:25:03.818Z,100948.09
2022-10-29T21:27:31.368Z,100940.22
2022-10-29T21:29:58.957Z,100949.69
2022-10-29T21:32:26.560Z,100949.56
2022-10-29T21:34:54.130Z,100950.81
2022-10-29T21:37:23.094Z,100954.03
2022-10-29T21:39:50.714Z,100945.63
2022-10-29T21:42:18.262Z,100952.47
2022-10-29T21:44:45.855Z,100947.91
2022-10-29T21:47:13.439Z,100953.28
2022-10-29T21:49:41.157Z,100950.81
2022-10-29T21:52:08.716Z,100950.34
2022-10-29T21:54:37.711Z,100952.53
2022-10-29T21:57:05.835Z,100950.91
2022-10-29T21:59:33.475Z,100950.25
2022-10-29T22:02:01.077Z,100944.56
2022-10-29T22:04:28.698Z,100950.78
2022-10-29T22:06:56.855Z,100941.06
2022-10-29T22:09:24.587Z,100941.06
2022-10-29T22:11:53.519Z,100939.13
2022-10-29T22:14:21.091Z,100940.53
2022-10-29T22:16:48.693Z,100937.91
2022-10-29T22:19:16.236Z,100942.06
2022-10-29T22:21:46.151Z,100936.25
2022-10-29T22:24:13.916Z,100934.22
2022-10-29T22:26:41.524Z,100932.00
2022-10-29T22:29:10.464Z,100936.53
2022-10-29T22:31:38.370Z,100929.84
2022-10-29T22:34:06.053Z,100932.94
2022-10-29T22:36:33.618Z,100926.38
2022-10-29T22:39:02.062Z,100930.91
2022-10-29T22:41:30.561Z,100931.25
2022-10-29T22:43:58.998Z,100934.22
2022-10-29T22:46:29.516Z,100921.19
2022-10-29T22:48:57.425Z,100917.19
2022-10-29T22:51:26.936Z,100921.28
2022-10-29T22:53:56.011Z,100919.47
2022-10-29T22:56:25.087Z,100918.34
2022-10-29T22:58:53.156Z,100920.09
2022-10-29T23:01:23.232Z,100917.13
2022-10-29T23:03:52.807Z,100920.91
2022-10-29T23:06:21.818Z,100925.09
2022-10-29T23:08:52.428Z,100926.56
2022-10-29T23:11:21.710Z,100920.19
2022-10-29T23:13:50.363Z,100914.00
2022-10-29T23:16:18.093Z,100927.41
2022-10-29T23:18:49.210Z,100927.56
2022-10-29T23:21:18.549Z,100925.94
2022-10-29T23:23:47.009Z,100928.41
2022-10-29T23:26:15.283Z,100931.66
2022-10-29T23:28:43.958Z,100939.88
2022-10-29T23:31:14.075Z,100933.22
2022-10-29T23:33:45.150Z,100937.25
2022-10-29T23:36:13.847Z,100936.97
2022-10-29T23:38:45.106Z,100933.09
2022-10-29T23:41:13.287Z,100931.41
2022-10-29T23:43:41.066Z,100927.91
2022-10-29T23:46:08.717Z,100927.91
2022-10-29T23:48:36.286Z,100923.75
2022-10-29T23:51:03.870Z,100928.28
2022-10-29T23:53:31.717Z,100928.09
2022-10-29T23:56:01.287Z,100925.59
2022-10-29T23:58:28.871Z,100927.28
